This is the latest recevied weather packets stored in our database for station/object PY2VE-13. If no packets are shown the sender has not sent any weather packets the latest 10 day(s).
| Time | Temp. | Humidity | Pressure | Rain* | Wind** | Luminosity | Snow |
|---|---|---|---|---|---|---|---|
| 1777376014 | 27.78° C | 56% | 1020.9 hPa | - | - | - | - |
| 1777375114 | 27.22° C | 58% | 1021 hPa | - | - | - | - |
| 1777374214 | 26.67° C | 59% | 1021 hPa | - | - | - | - |
| 1777373314 | 25.56° C | 63% | 1021.3 hPa | - | - | - | - |
| 1777372414 | 23.89° C | 67% | 1021.6 hPa | - | - | - | - |
| 1777371514 | 26.11° C | 62% | 1020.8 hPa | - | - | - | - |
| 1777370614 | 26.11° C | 61% | 1020.7 hPa | - | - | - | - |
| 1777369714 | 25.56° C | 62% | 1020.6 hPa | - | - | - | - |
| 1777368814 | 25.56° C | 62% | 1020.2 hPa | - | - | - | - |
| 1777367914 | 25.56° C | 61% | 1019.9 hPa | - | - | - | - |
| 1777367014 | 25° C | 61% | 1019.8 hPa | - | - | - | - |
| 1777366114 | 25° C | 62% | 1019.6 hPa | - | - | - | - |
| 1777365214 | 25° C | 62% | 1019.4 hPa | - | - | - | - |
| 1777364314 | 25° C | 64% | 1019.5 hPa | - | - | - | - |
| 1777363414 | 24.44° C | 65% | 1019.6 hPa | - | - | - | - |
| 1777362513 | 24.44° C | 65% | 1019.5 hPa | - | - | - | - |
| 1777361613 | 24.44° C | 64% | 1019.3 hPa | - | - | - | - |
| 1777360713 | 25.56° C | 62% | 1019.1 hPa | - | - | - | - |
| 1777359813 | 25.56° C | 61% | 1019 hPa | - | - | - | - |
| 1777358913 | 25° C | 63% | 1019.3 hPa | - | - | - | - |
| 1777358013 | 26.11° C | 58% | 1018.7 hPa | - | - | - | - |
| 1777357113 | 26.11° C | 58% | 1018.4 hPa | - | - | - | - |
| 1777356213 | 26.67° C | 58% | 1018.5 hPa | - | - | - | - |
| 1777355313 | 25.56° C | 61% | 1019 hPa | - | - | - | - |
| 1777354413 | 26.11° C | 60% | 1018.9 hPa | - | - | - | - |
* Rain since midnight (hover to see other rain measurements)
** Current wind speed in m/s (hover to see current wind gust speed)